Time;durP1;ratioP1;P1;durP2;ratioP2;P2;SDS_P1;SDS_P2;PMS_P1;PMS_P2;Temp;Humidity;BMP_temperature;BMP_pressure;BME280_temperature;BME280_humidity;BME280_pressure;Samples;Min_cycle;Max_cycle;Signal;HPM_P1;HPM_P2
2023/01/19 00:00:19;;;;;;;27.87;22.63;;;;;;;1.30;95.65;100028.34;5094833;28;20047;-64
2023/01/19 00:02:47;;;;;;;25.13;22.63;;;;;;;1.28;95.61;100020.53;5095201;28;20024;-64
2023/01/19 00:05:13;;;;;;;26.97;24.10;;;;;;;1.23;95.10;100011.97;5095808;28;20059;-63
2023/01/19 00:07:39;;;;;;;26.60;23.73;;;;;;;1.27;95.82;100033.69;5092936;28;20548;-64
2023/01/19 00:10:08;;;;;;;25.60;23.00;;;;;;;1.30;95.56;100023.94;5093112;28;20051;-64
2023/01/19 00:12:33;;;;;;;26.90;24.03;;;;;;;1.28;95.70;100019.66;5095177;28;20107;-63
2023/01/19 00:14:59;;;;;;;25.80;23.00;;;;;;;1.25;95.20;100015.41;5076042;28;20088;-63
2023/01/19 00:17:24;;;;;;;25.10;22.40;;;;;;;1.27;95.69;100018.81;5095652;28;20032;-64
2023/01/19 00:19:50;;;;;;;24.70;22.10;;;;;;;1.31;95.71;100022.16;5113936;28;20036;-64
2023/01/19 00:22:16;;;;;;;26.23;23.63;;;;;;;1.38;95.27;100021.00;5077501;28;20609;-64
2023/01/19 00:24:43;;;;;;;27.60;24.73;;;;;;;1.32;95.54;100032.59;5090317;28;20455;-64
2023/01/19 00:27:11;;;;;;;25.60;23.07;;;;;;;1.41;95.20;100023.50;5078388;28;20039;-63
2023/01/19 00:32:58;;;;;;;24.53;22.13;;;;;;;1.41;94.55;100020.88;5098151;28;20097;-63
2023/01/19 00:35:24;;;;;;;24.63;21.93;;;;;;;1.36;95.41;100036.81;5115091;28;20387;-63
2023/01/19 00:37:50;;;;;;;26.23;23.50;;;;;;;1.36;95.12;100036.81;5108593;28;20032;-64
2023/01/19 00:40:15;;;;;;;26.85;23.05;;;;;;;1.36;95.20;100049.91;5096229;28;20477;-63
2023/01/19 00:42:43;;;;;;;26.23;23.00;;;;;;;1.38;95.46;100038.50;5115151;28;20027;-63
2023/01/19 00:45:10;;;;;;;25.20;22.38;;;;;;;1.38;95.27;100038.50;5084259;28;20024;-64
2023/01/19 00:47:38;;;;;;;26.83;23.57;;;;;;;1.40;95.23;100036.69;5099134;28;20367;-64
2023/01/19 00:50:04;;;;;;;26.47;22.67;;;;;;;1.38;94.85;100031.50;5106272;28;20024;-64
2023/01/19 00:52:32;;;;;;;24.83;22.27;;;;;;;1.36;94.90;100030.72;5098792;28;20031;-64
2023/01/19 00:54:57;;;;;;;25.93;22.70;;;;;;;1.36;94.46;100026.31;5110313;28;20039;-63
2023/01/19 00:57:22;;;;;;;24.53;22.23;;;;;;;1.30;94.91;100013.47;5093931;28;20055;-63
2023/01/19 00:59:48;;;;;;;23.60;21.13;;;;;;;1.34;93.79;100022.06;5087438;28;20027;-63
2023/01/19 01:02:14;;;;;;;24.87;21.60;;;;;;;1.25;94.40;100023.25;5096252;28;20057;-64
2023/01/19 01:04:41;;;;;;;23.97;21.57;;;;;;;1.32;94.50;100029.09;5096170;28;20026;-63
2023/01/19 01:07:07;;;;;;;25.00;22.50;;;;;;;1.33;93.96;100029.06;5114707;28;20513;-63
2023/01/19 01:09:32;;;;;;;24.47;21.87;;;;;;;1.28;94.61;100028.38;5112625;28;20177;-63
2023/01/19 01:11:58;;;;;;;24.37;21.87;;;;;;;1.34;94.08;100029.91;5114591;28;20034;-64
2023/01/19 01:14:23;;;;;;;27.20;22.53;;;;;;;1.30;94.45;100030.94;5114227;28;20386;-64
2023/01/19 01:16:49;;;;;;;24.53;22.03;;;;;;;1.31;94.71;100043.13;5094524;28;20421;-64
2023/01/19 01:19:15;;;;;;;24.50;21.93;;;;;;;1.25;94.27;100032.88;5114149;28;20027;-63
2023/01/19 01:21:40;;;;;;;25.03;22.43;;;;;;;1.25;94.54;100023.25;5097979;28;20236;-64
2023/01/19 01:24:07;;;;;;;24.10;21.60;;;;;;;1.24;94.36;100031.19;5091915;28;20065;-64
2023/01/19 01:26:32;;;;;;;23.83;21.40;;;;;;;1.31;94.47;100043.97;5094338;28;20020;-63
2023/01/19 01:28:57;;;;;;;23.90;21.57;;;;;;;1.32;93.88;100034.34;5092265;28;20020;-64
2023/01/19 01:31:24;;;;;;;23.87;21.37;;;;;;;1.40;93.48;100034.91;5094400;28;20036;-63
2023/01/19 01:33:49;;;;;;;23.93;20.57;;;;;;;1.39;93.97;100043.69;5102253;28;20069;-63
2023/01/19 01:36:14;;;;;;;23.40;20.77;;;;;;;1.42;94.16;100045.34;5113937;28;20421;-63
2023/01/19 01:38:40;;;;;;;24.23;21.70;;;;;;;1.43;93.80;100041.81;5097181;28;20024;-64
2023/01/19 01:41:06;;;;;;;22.07;19.70;;;;;;;1.43;93.68;100045.28;5093086;28;20103;-64
2023/01/19 01:43:47;;;;;;;22.90;20.00;;;;;;;1.46;93.90;100049.53;5092710;28;20106;-64
2023/01/19 01:46:14;;;;;;;21.80;19.57;;;;;;;1.46;93.74;100054.78;5091935;28;20093;-63
2023/01/19 01:49:08;;;;;;;22.63;20.30;;;;;;;1.51;93.38;100050.22;5093330;28;20473;-64
2023/01/19 01:51:40;;;;;;;22.20;19.10;;;;;;;1.55;92.60;100057.03;5090537;28;20059;-64
2023/01/19 01:54:06;;;;;;;22.17;19.17;;;;;;;1.55;93.45;100063.13;5093416;28;20027;-63
2023/01/19 01:56:34;;;;;;;20.23;17.73;;;;;;;1.53;93.89;100061.47;5093201;28;20027;-63
2023/01/19 01:59:04;;;;;;;20.93;18.77;;;;;;;1.55;93.77;100067.53;5091411;28;20044;-63
2023/01/19 02:04:14;;;;;;;23.23;19.27;;;;;;;1.42;94.93;100068.94;5094055;28;20038;-64
2023/01/19 02:14:55;;;;;;;24.13;19.63;;;;;;;1.10;98.15;100066.59;5111093;28;20160;-63
2023/01/19 02:17:21;;;;;;;22.57;19.87;;;;;;;1.10;98.57;100073.59;5112317;28;20098;-63
2023/01/19 02:19:47;;;;;;;23.88;18.88;;;;;;;1.01;99.12;100063.47;5102512;28;20475;-63
2023/01/19 02:22:12;;;;;;;26.63;20.27;;;;;;;1.05;98.59;100072.91;5109915;28;20027;-63
2023/01/19 02:24:38;;;;;;;23.13;19.43;;;;;;;1.03;99.71;100072.09;5100693;28;20028;-64
2023/01/19 02:27:05;;;;;;;22.70;19.33;;;;;;;0.96;99.92;100068.00;5109262;28;20023;-64
2023/01/19 02:29:31;;;;;;;25.10;19.53;;;;;;;1.03;100.00;100077.31;5111483;28;20062;-63
2023/01/19 02:31:58;;;;;;;23.67;20.47;;;;;;;1.02;99.76;100076.47;5094961;28;20028;-64
2023/01/19 02:34:24;;;;;;;26.53;19.93;;;;;;;0.98;100.00;100087.13;5093628;28;20385;-63
2023/01/19 02:36:56;;;;;;;23.63;21.03;;;;;;;0.96;100.00;100083.72;5112949;28;20028;-64
2023/01/19 02:39:28;;;;;;;23.77;21.27;;;;;;;0.94;100.00;100085.50;5112294;28;20041;-63
2023/01/19 02:42:01;;;;;;;27.23;20.63;;;;;;;0.93;100.00;100089.06;5112044;28;20022;-64
2023/01/19 02:44:28;;;;;;;22.60;20.33;;;;;;;0.90;100.00;100088.25;5073939;28;20032;-64
2023/01/19 02:46:53;;;;;;;24.93;21.47;;;;;;;0.95;100.00;100084.63;5093142;28;20031;-64
2023/01/19 02:49:19;;;;;;;24.87;21.37;;;;;;;0.84;100.00;100072.75;5090988;28;20379;-63
2023/01/19 02:51:44;;;;;;;24.73;21.27;;;;;;;0.86;100.00;100097.13;5092189;28;20028;-64
2023/01/19 02:54:53;;;;;;;23.17;20.73;;;;;;;0.88;100.00;100103.19;5092639;28;20076;-63
2023/01/19 02:57:39;;;;;;;21.57;19.37;;;;;;;0.83;100.00;100099.00;5090729;28;20187;-63
2023/01/19 03:00:23;;;;;;;22.80;20.50;;;;;;;0.68;100.00;100088.16;5092028;28;20023;-63
2023/01/19 03:03:18;;;;;;;22.77;20.47;;;;;;;0.72;100.00;100096.75;5092725;28;20016;-63
2023/01/19 03:06:07;;;;;;;22.80;20.43;;;;;;;0.67;100.00;100096.91;5073983;28;20491;-64
2023/01/19 03:08:36;;;;;;;23.80;21.33;;;;;;;0.66;100.00;100105.66;5091482;28;20091;-63
2023/01/19 03:11:05;;;;;;;23.63;21.23;;;;;;;0.55;100.00;100093.84;5091827;28;20093;-63
2023/01/19 03:13:42;;;;;;;24.20;21.70;;;;;;;0.62;100.00;100111.06;5092526;28;20741;-63
2023/01/19 03:16:11;;;;;;;24.70;21.80;;;;;;;0.57;100.00;100105.13;5096044;28;20385;-64
2023/01/19 03:18:39;;;;;;;24.97;22.53;;;;;;;0.50;100.00;100112.34;5093843;28;20478;-64
2023/01/19 03:21:06;;;;;;;25.63;23.07;;;;;;;0.49;100.00;100115.84;5111393;28;20415;-64
2023/01/19 03:23:35;;;;;;;25.50;23.13;;;;;;;0.50;100.00;100116.69;5111585;28;20471;-64
2023/01/19 03:26:04;;;;;;;25.47;22.93;;;;;;;0.46;100.00;100123.78;5084305;28;20076;-64
2023/01/19 03:28:31;;;;;;;25.53;23.00;;;;;;;0.39;100.00;100117.91;5057106;28;20515;-63
2023/01/19 03:31:02;;;;;;;25.63;23.13;;;;;;;0.35;100.00;100125.91;5101129;28;20114;-64
2023/01/19 03:33:32;;;;;;;26.37;23.67;;;;;;;0.33;100.00;100119.91;5111479;28;20015;-64
2023/01/19 03:36:04;;;;;;;27.43;24.73;;;;;;;0.34;100.00;100127.66;5110875;28;20474;-64
2023/01/19 03:38:34;;;;;;;24.63;22.33;;;;;;;0.31;100.00;100119.94;5090560;28;20063;-64
2023/01/19 03:41:03;;;;;;;25.67;23.30;;;;;;;0.29;100.00;100133.94;5090785;28;20012;-63
2023/01/19 03:43:30;;;;;;;26.63;24.23;;;;;;;0.39;100.00;100140.63;5092952;28;20031;-63
2023/01/19 03:45:56;;;;;;;25.30;22.90;;;;;;;0.35;100.00;100146.81;5111564;28;20034;-63
2023/01/19 03:48:23;;;;;;;24.40;22.00;;;;;;;0.30;100.00;100143.53;5092690;28;20475;-63
2023/01/19 03:50:49;;;;;;;25.10;23.00;;;;;;;0.22;100.00;100128.94;5092623;28;20501;-63
2023/01/19 03:53:16;;;;;;;24.60;22.50;;;;;;;0.22;100.00;100134.16;5093122;28;20039;-64
2023/01/19 03:55:45;;;;;;;25.83;23.53;;;;;;;0.42;100.00;100151.81;5110736;28;20436;-64
2023/01/19 03:58:10;;;;;;;24.97;22.77;;;;;;;0.31;100.00;100147.84;5111003;28;20122;-63
2023/01/19 04:00:36;;;;;;;24.90;22.70;;;;;;;0.27;100.00;100156.72;5109437;28;20173;-63
2023/01/19 04:03:05;;;;;;;24.10;22.07;;;;;;;0.22;100.00;100159.44;5107763;28;20043;-63
2023/01/19 04:05:31;;;;;;;23.43;21.33;;;;;;;0.13;100.00;100151.91;5075988;28;20028;-64
2023/01/19 04:07:57;;;;;;;22.83;20.93;;;;;;;0.19;100.00;100176.09;5091093;28;20094;-63
2023/01/19 04:10:23;;;;;;;23.00;21.07;;;;;;;0.25;100.00;100179.41;5076598;28;20024;-64
2023/01/19 04:12:48;;;;;;;22.23;20.40;;;;;;;0.18;100.00;100173.53;5087954;28;20030;-63
2023/01/19 04:15:14;;;;;;;20.53;18.83;;;;;;;0.20;100.00;100176.94;5096447;28;20023;-63
2023/01/19 04:17:40;;;;;;;19.40;17.67;;;;;;;0.22;100.00;100177.75;5114913;28;20020;-63
2023/01/19 04:20:07;;;;;;;19.70;18.10;;;;;;;0.19;100.00;100181.31;5096990;28;20058;-63
2023/01/19 04:22:32;;;;;;;17.33;16.03;;;;;;;0.19;100.00;100194.41;5114281;28;20020;-63
2023/01/19 04:24:58;;;;;;;16.77;15.47;;;;;;;0.19;100.00;100197.00;5105986;28;20374;-63
2023/01/19 04:27:24;;;;;;;16.40;15.20;;;;;;;0.21;100.00;100205.66;5112029;28;20402;-64
2023/01/19 04:29:52;;;;;;;15.17;14.07;;;;;;;0.21;100.00;100207.44;5096415;28;20023;-64
2023/01/19 04:32:20;;;;;;;16.23;15.03;;;;;;;0.26;100.00;100221.19;5113109;28;20360;-64
2023/01/19 04:34:46;;;;;;;14.00;13.00;;;;;;;0.16;100.00;100204.09;5114080;28;20028;-64
2023/01/19 04:37:11;;;;;;;13.40;12.50;;;;;;;0.26;100.00;100220.34;5091811;28;20386;-64
2023/01/19 04:39:36;;;;;;;12.80;11.83;;;;;;;0.29;100.00;100217.63;5113923;28;20030;-63
2023/01/19 04:42:02;;;;;;;13.40;12.40;;;;;;;0.28;100.00;100211.56;5109668;28;20091;-63
2023/01/19 04:44:30;;;;;;;13.13;12.13;;;;;;;0.22;100.00;100214.38;5112879;28;20057;-63
2023/01/19 04:46:55;;;;;;;12.57;11.77;;;;;;;0.21;100.00;100221.34;5114572;28;20024;-63
2023/01/19 04:49:20;;;;;;;12.07;11.17;;;;;;;0.29;100.00;100212.41;5113021;28;20047;-63
2023/01/19 04:51:46;;;;;;;12.67;11.77;;;;;;;0.20;100.00;100214.41;5095661;28;20360;-63
2023/01/19 04:54:12;;;;;;;12.43;11.63;;;;;;;0.22;100.00;100209.13;5107288;28;20031;-63
2023/01/19 04:56:38;;;;;;;12.23;11.43;;;;;;;0.29;100.00;100189.72;5114621;28;20028;-63
2023/01/19 04:59:04;;;;;;;12.93;12.03;;;;;;;0.36;100.00;100196.47;5096231;28;20044;-64
2023/01/19 05:01:29;;;;;;;12.87;11.87;;;;;;;0.31;100.00;100187.06;5110035;28;20015;-64
2023/01/19 05:03:58;;;;;;;12.97;11.97;;;;;;;0.29;100.00;100176.66;5099545;28;20031;-64
2023/01/19 05:06:23;;;;;;;13.10;12.00;;;;;;;0.29;100.00;100162.72;5076772;28;20031;-63
2023/01/19 05:08:48;;;;;;;13.60;12.57;;;;;;;0.23;100.00;100150.69;5093468;28;20702;-63
2023/01/19 05:11:14;;;;;;;11.43;10.63;;;;;;;0.33;100.00;100159.13;5095382;28;20066;-63
2023/01/19 05:13:39;;;;;;;12.07;10.77;;;;;;;0.28;100.00;100161.03;5104735;28;20023;-63
2023/01/19 05:16:05;;;;;;;12.53;11.60;;;;;;;0.26;100.00;100144.50;5088214;28;20039;-64
2023/01/19 05:18:34;;;;;;;11.57;10.47;;;;;;;0.21;100.00;100132.47;5101862;28;20051;-63
2023/01/19 05:21:01;;;;;;;12.93;11.93;;;;;;;0.26;100.00;100136.66;5098737;28;20066;-63
2023/01/19 05:23:29;;;;;;;15.93;14.63;;;;;;;0.25;100.00;100145.44;5077227;28;20024;-63
2023/01/19 05:25:55;;;;;;;15.60;14.50;;;;;;;0.27;100.00;100160.16;5107459;28;20107;-63
2023/01/19 05:28:21;;;;;;;17.33;16.03;;;;;;;0.33;100.00;100156.50;5093833;28;20111;-64
2023/01/19 05:30:48;;;;;;;18.73;17.13;;;;;;;0.36;100.00;100174.72;5093461;28;20081;-63
2023/01/19 05:33:14;;;;;;;20.67;18.87;;;;;;;0.35;100.00;100184.28;5097651;28;20023;-63
2023/01/19 05:35:41;;;;;;;19.73;18.07;;;;;;;0.24;100.00;100170.72;5106068;28;20032;-64
2023/01/19 05:38:07;;;;;;;24.13;22.13;;;;;;;0.30;100.00;100181.00;5090756;28;20023;-63
2023/01/19 05:40:32;;;;;;;23.97;21.90;;;;;;;0.27;100.00;100181.09;5074929;28;20084;-64
2023/01/19 05:42:59;;;;;;;24.67;22.57;;;;;;;0.28;100.00;100187.16;5093617;28;20028;-63
2023/01/19 05:45:27;;;;;;;25.23;23.03;;;;;;;0.20;100.00;100179.56;5093225;28;20433;-64
2023/01/19 05:47:53;;;;;;;23.93;21.90;;;;;;;0.26;100.00;100184.59;5083882;28;20097;-64
2023/01/19 05:50:19;;;;;;;23.43;21.40;;;;;;;0.26;100.00;100191.59;5092048;28;20024;-63
2023/01/19 05:52:45;;;;;;;23.00;21.03;;;;;;;0.26;100.00;100183.75;5093572;28;20049;-64
2023/01/19 05:55:10;;;;;;;24.07;21.87;;;;;;;0.33;100.00;100183.50;5092777;28;20145;-63
2023/01/19 05:57:35;;;;;;;23.97;21.73;;;;;;;0.33;100.00;100186.13;5075436;28;20024;-63
2023/01/19 06:00:05;;;;;;;24.30;22.10;;;;;;;0.25;100.00;100189.88;5074785;28;20119;-63
2023/01/19 06:02:31;;;;;;;26.17;23.63;;;;;;;0.28;100.00;100188.03;5091905;28;20024;-64
2023/01/19 06:04:56;;;;;;;25.20;22.80;;;;;;;0.30;100.00;100198.44;5093142;28;20590;-63
2023/01/19 06:07:22;;;;;;;25.90;23.37;;;;;;;0.35;100.00;100199.97;5092670;28;20479;-63
2023/01/19 06:09:48;;;;;;;25.27;22.63;;;;;;;0.33;100.00;100199.19;5094108;28;20035;-63
2023/01/19 06:12:13;;;;;;;26.07;23.67;;;;;;;0.27;100.00;100191.56;5092808;28;20475;-64
2023/01/19 06:14:39;;;;;;;26.17;23.67;;;;;;;0.36;100.00;100208.72;5092872;28;20051;-63
2023/01/19 06:17:07;;;;;;;23.37;21.23;;;;;;;0.35;100.00;100210.44;5092932;28;20020;-63
2023/01/19 06:19:33;;;;;;;24.67;22.33;;;;;;;0.34;100.00;100213.97;5109026;28;20393;-63
2023/01/19 06:21:59;;;;;;;24.83;22.53;;;;;;;0.35;100.00;100227.91;5085108;28;20024;-63
2023/01/19 06:24:24;;;;;;;24.70;22.47;;;;;;;0.30;100.00;100221.97;5079859;28;20023;-63
2023/01/19 06:26:50;;;;;;;26.57;24.20;;;;;;;0.33;100.00;100233.19;5105592;28;20023;-64
2023/01/19 06:29:16;;;;;;;27.27;24.67;;;;;;;0.37;100.00;100233.94;5078661;28;20398;-64
2023/01/19 06:31:41;;;;;;;27.43;24.93;;;;;;;0.30;100.00;100220.22;5091225;28;20024;-63
2023/01/19 06:34:07;;;;;;;29.43;26.80;;;;;;;0.35;100.00;100220.91;5094496;28;20028;-63
2023/01/19 06:36:33;;;;;;;29.67;27.07;;;;;;;0.38;100.00;100233.91;5112648;28;20053;-64
2023/01/19 06:38:59;;;;;;;31.67;28.77;;;;;;;0.36;100.00;100238.34;5112464;28;20110;-63
2023/01/19 06:41:24;;;;;;;32.93;29.77;;;;;;;0.35;100.00;100236.59;5090863;28;20107;-63
2023/01/19 06:43:50;;;;;;;32.63;29.53;;;;;;;0.28;100.00;100219.41;5090581;28;20123;-63
2023/01/19 06:46:15;;;;;;;34.93;31.73;;;;;;;0.36;100.00;100242.72;5095706;28;20118;-63
2023/01/19 06:48:40;;;;;;;34.83;31.50;;;;;;;0.36;100.00;100240.94;5079172;28;20035;-64
2023/01/19 06:51:08;;;;;;;36.57;33.03;;;;;;;0.29;100.00;100234.19;5078931;28;20031;-63
2023/01/19 06:53:37;;;;;;;39.73;35.90;;;;;;;0.31;100.00;100242.84;5107476;28;20031;-64
2023/01/19 06:56:03;;;;;;;37.87;34.33;;;;;;;0.36;100.00;100250.56;5112933;28;20511;-64
2023/01/19 06:58:29;;;;;;;41.83;37.57;;;;;;;0.41;100.00;100264.31;5101929;28;20040;-63
2023/01/19 07:01:03;;;;;;;39.60;36.00;;;;;;;0.39;100.00;100258.31;5101065;28;20386;-64
2023/01/19 07:03:28;;;;;;;40.73;36.93;;;;;;;0.37;100.00;100260.09;5091864;28;20079;-64
2023/01/19 07:05:55;;;;;;;41.10;37.40;;;;;;;0.34;100.00;100257.59;5098542;28;20486;-63
2023/01/19 07:08:22;;;;;;;43.37;38.83;;;;;;;0.38;100.00;100267.03;5078221;28;20414;-63
2023/01/19 07:10:48;;;;;;;39.83;36.00;;;;;;;0.27;100.00;100259.53;5092409;28;20028;-63
2023/01/19 07:13:14;;;;;;;45.83;38.70;;;;;;;0.40;100.00;100267.84;5077250;28;20020;-63
2023/01/19 07:15:39;;;;;;;43.87;39.53;;;;;;;0.48;100.00;100260.63;5077271;28;20030;-64
2023/01/19 07:18:06;;;;;;;47.30;42.60;;;;;;;0.50;100.00;100271.03;5111488;28;20046;-64
2023/01/19 07:20:36;;;;;;;45.17;40.53;;;;;;;0.63;100.00;100275.84;5112163;28;20040;-63
2023/01/19 07:23:02;;;;;;;44.33;39.72;;;;;;;0.61;100.00;100282.03;5093486;28;20034;-63
2023/01/19 07:25:28;;;;;;;48.17;43.20;;;;;;;0.58;100.00;100287.34;5101091;28;20043;-64
2023/01/19 07:28:00;;;;;;;47.53;42.40;;;;;;;0.64;100.00;100289.78;5090602;28;20034;-64
2023/01/19 07:30:26;;;;;;;46.13;41.33;;;;;;;0.65;100.00;100296.75;5093605;28;20496;-63
2023/01/19 07:32:55;;;;;;;46.53;41.93;;;;;;;0.62;100.00;100286.38;5087457;28;20063;-64
2023/01/19 07:35:20;;;;;;;50.07;42.43;;;;;;;0.56;100.00;100297.88;5111009;28;20030;-63
2023/01/19 07:37:46;;;;;;;44.67;40.20;;;;;;;0.63;100.00;100303.78;5093038;28;20027;-64
2023/01/19 07:40:12;;;;;;;46.97;42.07;;;;;;;0.59;100.00;100310.00;5091206;28;20024;-64
2023/01/19 07:42:37;;;;;;;45.93;41.20;;;;;;;0.58;100.00;100308.28;5093619;28;20091;-63
2023/01/19 07:45:03;;;;;;;46.00;41.13;;;;;;;0.50;100.00;100312.91;5095547;28;20056;-64
2023/01/19 07:47:28;;;;;;;46.93;41.43;;;;;;;0.45;100.00;100316.53;5107064;28;20027;-63
2023/01/19 07:49:54;;;;;;;49.10;41.80;;;;;;;0.49;100.00;100338.22;5115953;28;20051;-64
2023/01/19 07:52:21;;;;;;;49.70;41.77;;;;;;;0.45;100.00;100331.38;5115905;28;20111;-64
2023/01/19 07:54:49;;;;;;;50.17;42.37;;;;;;;0.37;100.00;100323.72;5115280;28;20061;-64
2023/01/19 07:57:16;;;;;;;47.70;41.37;;;;;;;0.40;100.00;100336.72;5114116;28;20038;-64
2023/01/19 07:59:41;;;;;;;49.07;42.10;;;;;;;0.41;100.00;100337.56;5115510;28;20680;-64
2023/01/19 08:02:08;;;;;;;50.57;43.90;;;;;;;0.42;100.00;100348.00;5116099;28;20030;-64
2023/01/19 08:04:34;;;;;;;50.70;42.00;;;;;;;0.42;100.00;100341.91;5115632;28;20102;-64
2023/01/19 08:06:59;;;;;;;50.00;41.30;;;;;;;0.46;100.00;100346.16;5107883;28;20103;-64
2023/01/19 08:09:25;;;;;;;61.10;44.07;;;;;;;0.48;100.00;100340.88;5094890;28;20081;-64
2023/01/19 08:11:50;;;;;;;51.90;44.37;;;;;;;0.48;100.00;100346.13;5095127;28;20031;-64
2023/01/19 08:14:16;;;;;;;54.37;44.87;;;;;;;0.42;100.00;100349.78;5090488;28;20107;-64
2023/01/19 08:16:41;;;;;;;57.73;42.83;;;;;;;0.36;100.00;100348.19;5099934;28;20390;-64
2023/01/19 08:19:06;;;;;;;54.90;45.73;;;;;;;0.48;100.00;100362.66;5114200;28;20107;-64
2023/01/19 08:21:32;;;;;;;57.67;46.10;;;;;;;0.44;100.00;100364.53;5114344;28;20080;-64
2023/01/19 08:23:58;;;;;;;54.57;45.17;;;;;;;0.43;100.00;100369.78;5095806;28;20054;-64
2023/01/19 08:26:29;;;;;;;55.03;43.03;;;;;;;0.44;100.00;100369.75;5095583;28;20098;-64
2023/01/19 08:29:00;;;;;;;52.20;42.80;;;;;;;0.44;100.00;100374.97;5078173;28;20099;-64
2023/01/19 08:31:26;;;;;;;57.93;41.67;;;;;;;0.42;100.00;100374.16;5095823;28;20045;-64
2023/01/19 08:33:51;;;;;;;58.27;43.10;;;;;;;0.45;100.00;100388.91;5114965;28;20028;-64
2023/01/19 08:36:17;;;;;;;56.77;43.60;;;;;;;0.44;100.00;100389.78;5098001;28;20034;-63
2023/01/19 08:38:44;;;;;;;66.10;44.27;;;;;;;0.45;100.00;100392.38;5095319;28;20024;-64
2023/01/19 08:41:10;;;;;;;67.40;44.67;;;;;;;0.47;100.00;100394.94;5114166;28;20462;-64
2023/01/19 08:43:36;;;;;;;63.07;45.10;;;;;;;0.43;100.00;100390.72;5114640;28;20031;-64
2023/01/19 08:46:03;;;;;;;59.03;44.00;;;;;;;0.43;100.00;100402.03;5111122;28;20030;-64
2023/01/19 08:48:28;;;;;;;64.40;45.60;;;;;;;0.49;100.00;100403.59;5094447;28;20027;-63
2023/01/19 08:50:54;;;;;;;66.30;45.57;;;;;;;0.39;100.00;100392.56;5094413;28;20024;-63
2023/01/19 08:53:21;;;;;;;64.23;45.20;;;;;;;0.48;100.00;100408.91;5092044;28;20496;-64
2023/01/19 08:55:49;;;;;;;70.43;45.27;;;;;;;0.44;100.00;100406.38;5096220;28;20116;-63
2023/01/19 08:58:16;;;;;;;67.67;47.13;;;;;;;0.45;100.00;100413.31;5094230;28;20031;-64
2023/01/19 09:00:41;;;;;;;64.27;46.17;;;;;;;0.48;100.00;100414.13;5096016;28;20020;-64
2023/01/19 09:03:10;;;;;;;65.30;45.90;;;;;;;0.54;100.00;100412.19;5114506;28;20020;-64
2023/01/19 09:05:37;;;;;;;67.90;46.13;;;;;;;0.51;100.00;100420.13;5105459;28;20059;-64
2023/01/19 09:08:05;;;;;;;67.97;46.10;;;;;;;0.49;100.00;100423.69;5099362;28;20015;-64
2023/01/19 09:10:34;;;;;;;68.30;47.57;;;;;;;0.48;100.00;100412.38;5085276;28;20042;-64
2023/01/19 09:13:03;;;;;;;68.90;48.53;;;;;;;0.49;100.00;100419.31;5114416;28;20107;-64
2023/01/19 09:15:29;;;;;;;66.40;48.83;;;;;;;0.48;100.00;100412.38;5093822;28;20125;-64
2023/01/19 09:17:54;;;;;;;68.60;48.77;;;;;;;0.59;100.00;100422.50;5090630;28;20169;-64
2023/01/19 09:20:22;;;;;;;68.90;50.83;;;;;;;0.66;100.00;100434.53;5094925;28;20102;-64
2023/01/19 09:22:48;;;;;;;69.53;48.23;;;;;;;0.73;100.00;100433.44;5095878;28;20028;-64
2023/01/19 09:25:13;;;;;;;63.30;47.10;;;;;;;0.74;100.00;100422.09;5113757;28;20466;-61
2023/01/19 09:27:39;;;;;;;63.17;47.70;;;;;;;0.77;100.00;100427.22;5095999;28;20040;-61
2023/01/19 09:30:05;;;;;;;65.20;47.90;;;;;;;0.84;100.00;100435.75;5113442;28;20482;-62
2023/01/19 09:32:33;;;;;;;63.30;47.60;;;;;;;0.84;100.00;100415.66;5113484;28;20042;-62
2023/01/19 09:34:58;;;;;;;62.70;45.20;;;;;;;0.94;100.00;100434.56;5094117;28;20061;-62
2023/01/19 09:37:26;;;;;;;57.97;45.57;;;;;;;1.03;100.00;100430.78;5081777;28;20024;-62
2023/01/19 09:39:52;;;;;;;59.07;44.67;;;;;;;1.05;100.00;100445.56;5095088;28;20027;-62
2023/01/19 09:42:20;;;;;;;56.77;41.37;;;;;;;1.04;100.00;100450.88;5093861;28;20058;-62
2023/01/19 09:44:48;;;;;;;56.33;41.37;;;;;;;1.03;100.00;100438.66;5094672;28;20035;-61
2023/01/19 09:47:16;;;;;;;50.13;40.53;;;;;;;1.12;100.00;100452.34;5105530;28;20055;-62
2023/01/19 09:50:00;;;;;;;57.10;39.93;;;;;;;1.12;100.00;100446.25;5093800;28;20374;-62
2023/01/19 09:52:25;;;;;;;51.90;39.17;;;;;;;1.24;100.00;100445.03;5103675;28;20028;-62
2023/01/19 09:54:56;;;;;;;49.10;37.87;;;;;;;1.31;100.00;100447.38;5093522;28;20547;-62
2023/01/19 09:57:23;;;;;;;49.97;37.00;;;;;;;1.39;100.00;100446.31;5094120;28;20038;-63
2023/01/19 09:59:50;;;;;;;45.80;34.30;;;;;;;1.45;100.00;100454.81;5085739;28;20241;-62
2023/01/19 10:02:34;;;;;;;46.07;33.77;;;;;;;1.52;100.00;100461.56;5093145;28;20032;-62
2023/01/19 10:05:13;;;;;;;44.93;33.33;;;;;;;1.52;100.00;100460.72;5083096;28;20072;-62
2023/01/19 10:07:54;;;;;;;41.77;31.70;;;;;;;1.59;100.00;100462.25;5090844;28;20060;-61
2023/01/19 10:10:20;;;;;;;41.43;31.00;;;;;;;1.71;100.00;100471.47;5089703;28;20019;-61
2023/01/19 10:13:10;;;;;;;41.47;29.37;;;;;;;1.72;100.00;100475.78;5091675;28;20107;-60
2023/01/19 10:16:01;;;;;;;42.53;28.35;;;;;;;1.88;100.00;100477.00;5090828;28;20031;-62
2023/01/19 10:18:46;;;;;;;41.67;28.50;;;;;;;1.93;100.00;100482.94;5059756;28;20077;-61
2023/01/19 10:21:34;;;;;;;34.78;27.02;;;;;;;2.11;100.00;100478.84;5085921;28;20016;-62
2023/01/19 10:24:21;;;;;;;35.30;25.93;;;;;;;2.21;100.00;100482.88;5081992;28;20035;-62
2023/01/19 10:26:52;;;;;;;38.20;27.40;;;;;;;2.31;100.00;100479.94;5078936;28;20036;-62
2023/01/19 10:29:24;;;;;;;32.87;26.00;;;;;;;2.43;98.82;100482.97;5091473;28;20467;-63
2023/01/19 10:31:53;;;;;;;34.60;27.55;;;;;;;2.52;97.73;100478.31;5092098;28;20451;-61
2023/01/19 10:34:19;;;;;;;34.03;26.37;;;;;;;2.60;98.44;100481.53;5091786;28;20028;-62
2023/01/19 10:36:47;;;;;;;39.67;25.58;;;;;;;2.77;97.83;100492.28;5090237;28;20030;-62
2023/01/19 10:39:15;;;;;;;32.88;25.52;;;;;;;2.85;96.06;100489.34;5091025;28;20463;-62
2023/01/19 10:41:52;;;;;;;35.83;24.45;;;;;;;3.01;96.61;100490.50;5092178;28;20492;-62
2023/01/19 10:44:32;;;;;;;34.25;25.27;;;;;;;3.22;95.03;100490.59;5092340;28;20032;-62
2023/01/19 10:46:59;;;;;;;34.33;24.05;;;;;;;3.50;94.28;100488.63;5089578;28;20024;-62
2023/01/19 10:49:25;;;;;;;27.25;22.70;;;;;;;3.89;93.23;100490.53;5092262;28;20035;-62
2023/01/19 10:51:51;;;;;;;31.45;22.85;;;;;;;4.16;89.88;100488.53;5092162;28;20024;-62
2023/01/19 10:54:18;;;;;;;29.48;21.67;;;;;;;4.30;88.34;100488.81;5091920;28;20020;-62
2023/01/19 10:56:56;;;;;;;31.15;22.05;;;;;;;4.52;89.79;100487.84;5082835;28;20040;-62
2023/01/19 10:59:49;;;;;;;30.65;22.15;;;;;;;4.83;88.72;100494.41;5083380;28;20052;-61
2023/01/19 11:02:28;;;;;;;27.48;20.90;;;;;;;4.84;86.36;100493.47;5087043;28;20032;-62
2023/01/19 11:05:23;;;;;;;28.25;20.00;;;;;;;5.00;85.96;100497.16;5091910;28;20024;-61
2023/01/19 11:07:49;;;;;;;28.45;20.20;;;;;;;4.92;85.08;100486.94;5084448;28;20122;-62
2023/01/19 11:10:14;;;;;;;26.63;19.85;;;;;;;5.01;84.03;100496.22;5091069;28;20124;-62
2023/01/19 11:12:59;;;;;;;26.85;19.15;;;;;;;5.15;85.51;100490.31;5090571;28;20062;-62
2023/01/19 11:15:40;;;;;;;26.00;18.33;;;;;;;5.28;85.64;100490.59;5090859;28;20028;-63
2023/01/19 11:18:06;;;;;;;26.50;17.40;;;;;;;5.31;83.48;100490.44;5092305;28;20043;-62
2023/01/19 11:20:47;;;;;;;26.92;19.02;;;;;;;5.53;84.57;100487.63;5091735;28;20387;-63
2023/01/19 11:23:18;;;;;;;28.58;18.42;;;;;;;5.93;82.37;100483.94;5091984;28;20031;-63
2023/01/19 11:25:46;;;;;;;25.65;17.90;;;;;;;6.10;80.85;100480.47;5091153;28;20035;-63
2023/01/19 11:28:25;;;;;;;25.23;16.13;;;;;;;6.64;80.86;100477.69;5090269;28;20471;-63
2023/01/19 11:30:55;;;;;;;23.42;15.98;;;;;;;7.09;77.45;100492.00;5090470;28;20475;-62